createdAt,value
2023-07-06T00:01:03.521Z,98863.55
2023-07-06T00:03:52.944Z,98867.02
2023-07-06T00:06:41.825Z,98862.09
2023-07-06T00:09:30.343Z,98861.94
2023-07-06T00:12:20.258Z,98857.34
2023-07-06T00:15:10.600Z,98862.05
2023-07-06T00:17:59.638Z,98864.39
2023-07-06T00:20:50.876Z,98863.95
2023-07-06T00:23:44.710Z,98866.38
2023-07-06T00:26:33.291Z,98865.73
2023-07-06T00:29:21.803Z,98863.45
2023-07-06T00:32:27.904Z,98860.20
2023-07-06T00:35:16.871Z,98860.91
2023-07-06T00:38:10.465Z,98861.45
2023-07-06T00:40:59.454Z,98858.27
2023-07-06T00:43:52.173Z,98866.01
2023-07-06T00:46:41.354Z,98872.46
2023-07-06T00:49:30.484Z,98876.55
2023-07-06T00:52:19.586Z,98876.13
2023-07-06T00:55:09.564Z,98880.56
2023-07-06T00:58:08.948Z,98876.27
2023-07-06T01:01:03.927Z,98871.84
2023-07-06T01:03:56.599Z,98870.38
2023-07-06T01:06:49.646Z,98871.36
2023-07-06T01:09:38.770Z,98873.36
2023-07-06T01:12:27.331Z,98870.39
2023-07-06T01:15:17.877Z,98866.11
2023-07-06T01:18:18.573Z,98863.95
2023-07-06T01:21:17.280Z,98877.38
2023-07-06T01:24:34.881Z,98891.34
2023-07-06T01:27:43.791Z,98893.23
2023-07-06T01:30:51.149Z,98893.81
2023-07-06T01:33:42.002Z,98893.77
2023-07-06T01:36:44.480Z,98896.90
2023-07-06T01:39:33.005Z,98903.39
2023-07-06T01:42:27.870Z,98903.71
2023-07-06T01:45:25.189Z,98904.80
2023-07-06T01:48:15.187Z,98909.09
2023-07-06T01:51:10.387Z,98905.25
2023-07-06T01:54:05.929Z,98906.34
2023-07-06T01:57:06.546Z,98916.52
2023-07-06T01:59:58.770Z,98919.82
2023-07-06T02:02:49.572Z,98922.59
2023-07-06T02:05:40.595Z,98925.02
2023-07-06T02:08:30.048Z,98931.63
2023-07-06T02:11:25.800Z,98935.20
2023-07-06T02:14:14.440Z,98935.52
2023-07-06T02:17:03.043Z,98938.55
2023-07-06T02:19:51.613Z,98944.35
2023-07-06T02:22:41.638Z,98942.77
2023-07-06T02:25:30.143Z,98942.02
2023-07-06T02:28:18.700Z,98946.84
2023-07-06T02:31:07.467Z,98949.75
2023-07-06T02:33:57.425Z,98947.75
2023-07-06T02:36:45.969Z,98953.17
2023-07-06T02:39:34.614Z,98957.02
2023-07-06T02:42:23.186Z,98957.60
2023-07-06T02:45:12.217Z,98956.64
2023-07-06T02:48:01.157Z,98959.98
2023-07-06T02:50:52.956Z,98961.83
2023-07-06T02:53:41.479Z,98961.50
2023-07-06T02:56:30.284Z,98962.25
2023-07-06T02:59:19.382Z,98964.73
2023-07-06T03:02:08.716Z,98963.81
2023-07-06T03:04:57.576Z,98967.91
2023-07-06T03:07:46.504Z,98971.64
2023-07-06T03:10:35.019Z,98970.69
2023-07-06T03:13:29.907Z,98974.37
2023-07-06T03:16:24.108Z,98972.81
2023-07-06T03:19:24.704Z,98978.50
2023-07-06T03:22:21.558Z,98981.04
2023-07-06T03:25:11.164Z,98986.34
2023-07-06T03:27:59.783Z,98987.27
2023-07-06T03:30:55.299Z,98986.19
2023-07-06T03:33:44.835Z,98985.14
2023-07-06T03:36:35.015Z,98994.40
2023-07-06T03:39:23.801Z,99002.09
2023-07-06T03:42:12.461Z,99007.73
2023-07-06T03:45:00.998Z,99012.90
2023-07-06T03:47:51.352Z,99019.45
2023-07-06T03:50:40.098Z,99021.86
2023-07-06T03:53:28.643Z,99029.09
2023-07-06T03:56:19.502Z,99032.64
2023-07-06T03:59:08.005Z,99040.98
2023-07-06T04:01:56.994Z,99040.98
2023-07-06T04:04:45.500Z,99038.05
2023-07-06T04:07:33.986Z,99037.45
2023-07-06T04:10:23.724Z,99045.42
2023-07-06T04:13:14.866Z,99043.27
2023-07-06T04:16:03.698Z,99044.46
2023-07-06T04:18:52.235Z,99046.84
2023-07-06T04:21:40.751Z,99047.37
2023-07-06T04:24:32.920Z,99056.27
2023-07-06T04:27:21.473Z,99059.41
2023-07-06T04:30:12.218Z,99057.64
2023-07-06T04:33:02.129Z,99057.94
2023-07-06T04:35:52.890Z,99058.83
2023-07-06T04:38:41.551Z,99061.92
2023-07-06T04:41:30.221Z,99064.59
2023-07-06T04:44:19.363Z,99070.31
2023-07-06T04:47:08.169Z,99070.80
2023-07-06T04:49:56.751Z,99078.58
2023-07-06T04:52:47.034Z,99089.42
2023-07-06T04:55:36.777Z,99087.52
2023-07-06T04:58:25.401Z,99090.83
2023-07-06T05:01:16.079Z,99091.38
2023-07-06T05:04:04.764Z,99089.93
2023-07-06T05:06:55.657Z,99089.16
2023-07-06T05:09:44.450Z,99091.61
2023-07-06T05:12:33.258Z,99093.55
2023-07-06T05:15:21.770Z,99091.42
2023-07-06T05:18:10.410Z,99094.52
2023-07-06T05:20:59.331Z,99099.29
2023-07-06T05:23:47.860Z,99106.78
2023-07-06T05:26:36.409Z,99110.69
2023-07-06T05:29:24.976Z,99113.19
2023-07-06T05:32:13.515Z,99106.64
2023-07-06T05:35:02.223Z,99115.48
2023-07-06T05:37:52.445Z,99118.10
2023-07-06T05:40:42.391Z,99121.88
2023-07-06T05:43:31.628Z,99127.15
2023-07-06T05:46:20.202Z,99129.92
2023-07-06T05:49:08.780Z,99134.52
2023-07-06T05:51:57.289Z,99134.52
2023-07-06T05:54:45.988Z,99142.75
2023-07-06T05:57:34.513Z,99157.40
2023-07-06T06:00:23.154Z,99156.11
2023-07-06T06:03:12.835Z,99155.16
2023-07-06T06:06:02.433Z,99150.11
2023-07-06T06:08:52.513Z,99149.77
2023-07-06T06:11:41.070Z,99156.91
2023-07-06T06:14:30.243Z,99159.83
2023-07-06T06:17:20.555Z,99163.33
2023-07-06T06:20:11.929Z,99161.19
2023-07-06T06:23:00.902Z,99166.56
2023-07-06T06:25:49.399Z,99168.64
2023-07-06T06:28:42.479Z,99167.02
2023-07-06T06:31:31.726Z,99170.66
2023-07-06T06:34:20.311Z,99173.15
2023-07-06T06:37:10.671Z,99175.91
2023-07-06T06:40:00.629Z,99173.85
2023-07-06T06:42:49.736Z,99173.76
2023-07-06T06:45:40.552Z,99173.63
2023-07-06T06:48:29.103Z,99177.48
2023-07-06T06:51:17.674Z,99184.00
2023-07-06T06:54:06.850Z,99191.86
2023-07-06T06:56:55.420Z,99195.89
2023-07-06T06:59:44.323Z,99196.73
2023-07-06T07:02:34.132Z,99195.14
2023-07-06T07:05:22.749Z,99194.64
2023-07-06T07:08:11.287Z,99199.41
2023-07-06T07:11:07.239Z,99201.39
2023-07-06T07:14:11.264Z,99201.52
2023-07-06T07:17:00.400Z,99208.73
2023-07-06T07:19:49.974Z,99212.70
2023-07-06T07:22:39.797Z,99216.48
2023-07-06T07:25:31.088Z,99216.23
2023-07-06T07:28:20.185Z,99216.54
2023-07-06T07:31:12.474Z,99214.80
2023-07-06T07:34:01.175Z,99224.46
2023-07-06T07:36:51.856Z,99223.52
2023-07-06T07:39:40.340Z,99225.35
2023-07-06T07:42:31.611Z,99220.55
2023-07-06T07:45:20.843Z,99223.61
2023-07-06T07:48:09.485Z,99232.44
2023-07-06T07:50:58.016Z,99227.99
2023-07-06T07:53:46.759Z,99232.59
2023-07-06T07:56:35.895Z,99242.03
2023-07-06T07:59:27.367Z,99246.05
2023-07-06T08:02:16.730Z,99243.96
2023-07-06T08:05:10.634Z,99245.89
2023-07-06T08:07:59.512Z,99248.39
2023-07-06T08:10:48.128Z,99251.34
2023-07-06T08:13:37.257Z,99254.25
2023-07-06T08:16:26.108Z,99257.47
2023-07-06T08:19:33.738Z,99256.73
2023-07-06T08:22:23.985Z,99251.59
2023-07-06T08:25:12.913Z,99250.63
2023-07-06T08:28:02.515Z,99253.34
2023-07-06T08:30:53.213Z,99250.89
2023-07-06T08:33:41.872Z,99250.44
2023-07-06T08:36:30.524Z,99252.69
2023-07-06T08:39:19.233Z,99251.89
2023-07-06T08:42:11.844Z,99250.48
2023-07-06T08:45:00.382Z,99249.80
2023-07-06T08:47:52.117Z,99255.43
2023-07-06T08:50:44.107Z,99260.36
2023-07-06T08:53:34.746Z,99260.80
2023-07-06T08:56:25.013Z,99257.48
2023-07-06T08:59:20.196Z,99251.98
2023-07-06T09:02:22.729Z,99249.42
2023-07-06T09:05:15.740Z,99248.54
2023-07-06T09:08:05.313Z,99244.48
2023-07-06T09:10:55.497Z,99246.39
2023-07-06T09:13:50.657Z,99254.52
2023-07-06T09:16:56.624Z,99264.88
2023-07-06T09:19:46.029Z,99262.37
2023-07-06T09:22:34.748Z,99259.83
2023-07-06T09:25:39.341Z,99261.93
2023-07-06T09:28:30.527Z,99257.75
2023-07-06T09:31:25.146Z,99255.33
2023-07-06T09:34:27.454Z,99247.70
2023-07-06T09:37:16.376Z,99243.08
2023-07-06T09:43:24.736Z,99256.64
2023-07-06T09:46:15.657Z,99264.59
2023-07-06T09:49:21.020Z,99274.27
2023-07-06T09:52:16.967Z,99278.38
2023-07-06T09:55:21.295Z,99280.27
2023-07-06T09:58:20.677Z,99280.48
2023-07-06T10:01:34.821Z,99285.46
2023-07-06T10:05:13.805Z,99290.74
2023-07-06T10:08:12.911Z,99294.11
2023-07-06T10:11:17.696Z,99293.33
2023-07-06T10:14:16.337Z,99292.71
2023-07-06T10:17:19.617Z,99288.65
2023-07-06T10:20:19.402Z,99288.27
2023-07-06T10:23:25.949Z,99294.27
2023-07-06T10:26:30.126Z,99304.80
2023-07-06T10:29:30.708Z,99304.80
2023-07-06T10:32:25.838Z,99298.85
2023-07-06T10:35:33.118Z,99308.08
2023-07-06T10:38:22.213Z,99307.63
2023-07-06T10:41:11.319Z,99307.17
2023-07-06T10:44:20.739Z,99304.50
2023-07-06T10:47:45.663Z,99304.10
2023-07-06T10:50:45.002Z,99307.23
2023-07-06T10:54:00.525Z,99312.95
2023-07-06T10:57:01.855Z,99316.92
2023-07-06T10:59:51.074Z,99314.98
2023-07-06T11:02:41.775Z,99313.02
2023-07-06T11:05:37.829Z,99317.79
2023-07-06T11:09:03.426Z,99322.81
2023-07-06T11:11:56.030Z,99326.86
2023-07-06T11:14:45.785Z,99327.79
2023-07-06T11:17:41.441Z,99324.91
2023-07-06T11:20:30.371Z,99322.92
2023-07-06T11:23:22.667Z,99323.64
2023-07-06T11:26:36.108Z,99321.89
2023-07-06T11:29:30.199Z,99321.84
2023-07-06T11:32:33.715Z,99326.73
2023-07-06T11:35:35.857Z,99332.52
2023-07-06T11:38:39.234Z,99331.80
2023-07-06T11:41:55.305Z,99329.04
2023-07-06T11:44:52.448Z,99332.20
2023-07-06T11:47:54.704Z,99334.50
2023-07-06T11:50:43.781Z,99334.10
2023-07-06T11:53:52.999Z,99333.05
2023-07-06T11:57:04.675Z,99329.42
2023-07-06T12:00:18.072Z,99332.58
2023-07-06T12:03:12.832Z,99332.58
2023-07-06T12:06:01.594Z,99332.41
2023-07-06T12:08:50.226Z,99334.34
2023-07-06T12:11:40.007Z,99330.52
2023-07-06T12:14:29.464Z,99326.38
2023-07-06T12:17:18.204Z,99329.29
2023-07-06T12:20:12.067Z,99328.69
2023-07-06T12:23:00.850Z,99327.05
2023-07-06T12:25:49.922Z,99320.09
2023-07-06T12:28:38.538Z,99320.77
2023-07-06T12:31:28.687Z,99320.60
2023-07-06T12:34:20.561Z,99313.86
2023-07-06T12:37:11.094Z,99313.20
2023-07-06T12:39:59.642Z,99309.27
2023-07-06T12:42:48.946Z,99303.52
2023-07-06T12:45:38.458Z,99298.55
2023-07-06T12:48:27.180Z,99295.39
2023-07-06T12:51:22.441Z,99288.98
2023-07-06T12:54:11.534Z,99295.91
2023-07-06T12:57:22.802Z,99292.20
2023-07-06T13:00:22.804Z,99287.54
2023-07-06T13:03:11.769Z,99286.16
2023-07-06T13:06:02.153Z,99279.73
2023-07-06T13:08:58.443Z,99282.21
2023-07-06T13:11:49.223Z,99277.83
2023-07-06T13:14:41.862Z,99275.02
2023-07-06T13:17:30.740Z,99277.59
2023-07-06T13:20:22.537Z,99272.38
2023-07-06T13:23:12.597Z,99271.88
2023-07-06T13:26:01.967Z,99269.81
2023-07-06T13:28:50.651Z,99270.30
2023-07-06T13:31:53.249Z,99267.34
2023-07-06T13:34:45.011Z,99263.40
2023-07-06T13:37:33.814Z,99261.37
2023-07-06T13:40:22.493Z,99263.82
2023-07-06T13:43:16.689Z,99261.04
2023-07-06T13:46:05.863Z,99255.50
2023-07-06T13:48:54.934Z,99254.74
2023-07-06T13:51:44.450Z,99259.06
2023-07-06T13:54:33.097Z,99266.35
2023-07-06T13:57:22.187Z,99268.92
2023-07-06T14:00:11.620Z,99272.20
2023-07-06T14:03:03.084Z,99268.81
2023-07-06T14:05:55.438Z,99266.83
2023-07-06T14:08:44.203Z,99269.63
2023-07-06T14:11:32.763Z,99270.67
2023-07-06T14:14:21.738Z,99267.45
2023-07-06T14:17:10.287Z,99263.38
2023-07-06T14:20:03.292Z,99256.39
2023-07-06T14:22:55.539Z,99260.08
2023-07-06T14:25:45.800Z,99256.86
2023-07-06T14:28:34.377Z,99250.79
2023-07-06T14:31:34.906Z,99256.67
2023-07-06T14:34:24.256Z,99260.33
2023-07-06T14:37:13.794Z,99258.49
2023-07-06T14:40:02.335Z,99251.99
2023-07-06T14:42:55.965Z,99247.80
2023-07-06T14:45:45.976Z,99243.55
2023-07-06T14:48:34.769Z,99241.24
2023-07-06T14:51:23.845Z,99245.75
2023-07-06T14:54:12.695Z,99243.48
2023-07-06T14:57:01.203Z,99245.38
2023-07-06T14:59:49.832Z,99241.16
2023-07-06T15:02:42.229Z,99239.77
2023-07-06T15:05:32.706Z,99243.33
2023-07-06T15:08:21.384Z,99237.84
2023-07-06T15:11:09.919Z,99236.98
2023-07-06T15:13:58.659Z,99238.67
2023-07-06T15:16:47.319Z,99243.16
2023-07-06T15:19:35.959Z,99241.34
2023-07-06T15:22:24.506Z,99240.93
2023-07-06T15:25:13.136Z,99242.56
2023-07-06T15:28:01.683Z,99243.59
2023-07-06T15:30:50.276Z,99246.25
2023-07-06T15:33:39.738Z,99245.13
2023-07-06T15:36:28.478Z,99245.40
2023-07-06T15:39:17.017Z,99243.44
2023-07-06T15:42:05.963Z,99242.71
2023-07-06T15:44:54.816Z,99244.04
2023-07-06T15:47:52.939Z,99248.00
2023-07-06T15:50:46.541Z,99248.91
2023-07-06T15:53:35.111Z,99248.81
2023-07-06T15:56:25.027Z,99254.05
2023-07-06T15:59:14.504Z,99247.27
2023-07-06T16:02:03.911Z,99247.13
2023-07-06T16:04:52.737Z,99246.15
2023-07-06T16:07:41.273Z,99253.88
2023-07-06T16:10:30.077Z,99251.82
2023-07-06T16:13:19.165Z,99251.72
2023-07-06T16:16:08.099Z,99251.33
2023-07-06T16:18:57.198Z,99246.63
2023-07-06T16:21:46.223Z,99242.39
2023-07-06T16:24:34.928Z,99240.09
2023-07-06T16:27:24.131Z,99243.32
2023-07-06T16:30:12.954Z,99244.57
2023-07-06T16:33:12.314Z,99242.41
2023-07-06T16:36:02.585Z,99242.85
2023-07-06T16:38:53.052Z,99238.05
2023-07-06T16:41:42.268Z,99235.32
2023-07-06T16:44:31.094Z,99235.31
2023-07-06T16:47:20.041Z,99233.40
2023-07-06T16:50:09.000Z,99235.13
2023-07-06T16:52:57.593Z,99235.64
2023-07-06T16:55:46.341Z,99238.48
2023-07-06T16:58:35.134Z,99241.86
2023-07-06T17:01:24.253Z,99241.36
2023-07-06T17:04:12.948Z,99241.08
2023-07-06T17:07:01.601Z,99242.56
2023-07-06T17:09:50.426Z,99246.46
2023-07-06T17:12:39.264Z,99243.78
2023-07-06T17:15:27.860Z,99249.64
2023-07-06T17:18:17.036Z,99250.44
2023-07-06T17:21:07.855Z,99249.91
2023-07-06T17:23:56.431Z,99251.59
2023-07-06T17:26:45.797Z,99249.80
2023-07-06T17:29:35.451Z,99249.91
2023-07-06T17:32:24.685Z,99254.99
2023-07-06T17:35:13.234Z,99257.10
2023-07-06T17:38:01.795Z,99262.30
2023-07-06T17:41:02.061Z,99266.06
2023-07-06T17:43:50.632Z,99261.08
2023-07-06T17:46:39.342Z,99263.48
2023-07-06T17:49:28.478Z,99265.00
2023-07-06T17:52:17.021Z,99264.16
2023-07-06T17:55:06.089Z,99259.77
2023-07-06T17:57:54.723Z,99264.95
2023-07-06T18:00:43.340Z,99264.12
2023-07-06T18:03:32.141Z,99264.44
2023-07-06T18:06:20.842Z,99262.73
2023-07-06T18:09:09.353Z,99265.73
2023-07-06T18:11:59.510Z,99265.23
2023-07-06T18:14:48.086Z,99270.26
2023-07-06T18:17:36.708Z,99269.42
2023-07-06T18:20:25.498Z,99267.63
2023-07-06T18:23:17.414Z,99270.16
2023-07-06T18:26:06.610Z,99275.77
2023-07-06T18:28:58.410Z,99277.02
2023-07-06T18:31:51.845Z,99285.23
2023-07-06T18:34:42.340Z,99280.48
2023-07-06T18:37:31.343Z,99281.44
2023-07-06T18:40:20.443Z,99279.92
2023-07-06T18:43:10.188Z,99282.09
2023-07-06T18:46:02.589Z,99284.16
2023-07-06T18:48:51.606Z,99285.69
2023-07-06T18:51:42.191Z,99289.21
2023-07-06T18:54:33.032Z,99293.17
2023-07-06T18:57:24.477Z,99298.45
2023-07-06T19:00:13.203Z,99299.77
2023-07-06T19:03:01.955Z,99305.17
2023-07-06T19:05:50.693Z,99309.98
2023-07-06T19:08:39.260Z,99313.09
2023-07-06T19:11:27.948Z,99315.52
2023-07-06T19:14:20.638Z,99317.60
2023-07-06T19:17:14.839Z,99318.46
2023-07-06T19:20:05.173Z,99320.26
2023-07-06T19:22:57.985Z,99324.91
2023-07-06T19:25:46.828Z,99328.36
2023-07-06T19:28:35.568Z,99334.14
2023-07-06T19:31:24.230Z,99336.65
2023-07-06T19:34:13.253Z,99336.90
2023-07-06T19:37:03.092Z,99337.23
2023-07-06T19:39:51.956Z,99335.63
2023-07-06T19:42:40.456Z,99337.50
2023-07-06T19:45:29.049Z,99341.81
2023-07-06T19:48:20.092Z,99341.94
2023-07-06T19:51:09.025Z,99344.39
2023-07-06T19:53:57.806Z,99349.34
2023-07-06T19:56:46.411Z,99347.74
2023-07-06T19:59:37.653Z,99350.55
2023-07-06T20:02:26.410Z,99350.81
2023-07-06T20:05:15.381Z,99349.55
2023-07-06T20:08:05.517Z,99347.39
2023-07-06T20:11:00.614Z,99347.93
2023-07-06T20:13:49.587Z,99349.63
2023-07-06T20:16:38.212Z,99355.80
2023-07-06T20:19:26.869Z,99355.73
2023-07-06T20:22:15.507Z,99360.39
2023-07-06T20:25:04.436Z,99362.55
2023-07-06T20:27:52.988Z,99364.81
2023-07-06T20:30:42.734Z,99374.16
2023-07-06T20:33:31.335Z,99373.56
2023-07-06T20:36:19.876Z,99373.41
2023-07-06T20:39:08.433Z,99378.83
2023-07-06T20:41:56.983Z,99378.65
2023-07-06T20:44:46.382Z,99378.08
2023-07-06T20:47:34.952Z,99378.55
2023-07-06T20:50:23.475Z,99379.61
2023-07-06T20:53:12.026Z,99384.43
2023-07-06T20:56:03.469Z,99387.17
2023-07-06T20:58:52.021Z,99390.50
2023-07-06T21:01:40.912Z,99388.00
2023-07-06T21:04:30.000Z,99391.96
2023-07-06T21:07:18.747Z,99393.58
2023-07-06T21:10:07.900Z,99392.82
2023-07-06T21:12:56.528Z,99389.74
2023-07-06T21:15:45.117Z,99392.44
2023-07-06T21:18:34.218Z,99391.81
2023-07-06T21:21:22.799Z,99394.73
2023-07-06T21:24:12.698Z,99394.70
2023-07-06T21:27:01.229Z,99398.95
2023-07-06T21:29:49.821Z,99407.48
2023-07-06T21:32:39.283Z,99407.43
2023-07-06T21:35:27.841Z,99409.04
2023-07-06T21:38:16.506Z,99415.48
2023-07-06T21:41:06.626Z,99417.89
2023-07-06T21:43:55.615Z,99419.52
2023-07-06T21:46:44.312Z,99417.39
2023-07-06T21:49:32.846Z,99422.39
2023-07-06T21:52:21.421Z,99424.20
2023-07-06T21:55:10.319Z,99420.78
2023-07-06T21:57:58.895Z,99423.86
2023-07-06T22:00:48.947Z,99425.23
2023-07-06T22:03:38.488Z,99427.60
2023-07-06T22:06:31.331Z,99434.52
2023-07-06T22:09:19.939Z,99427.09
2023-07-06T22:12:09.322Z,99430.86
2023-07-06T22:14:57.866Z,99429.47
2023-07-06T22:17:46.438Z,99430.33
2023-07-06T22:20:36.384Z,99432.52
2023-07-06T22:23:25.444Z,99434.52
2023-07-06T22:26:20.433Z,99436.70
2023-07-06T22:29:09.025Z,99436.95
2023-07-06T22:31:57.709Z,99434.73
2023-07-06T22:34:46.367Z,99431.92
2023-07-06T22:37:34.900Z,99429.83
2023-07-06T22:40:23.821Z,99425.81
2023-07-06T22:43:12.470Z,99423.96
2023-07-06T22:46:01.120Z,99425.02
2023-07-06T22:48:49.640Z,99423.67
2023-07-06T22:51:38.793Z,99426.25
2023-07-06T22:54:28.216Z,99427.67
2023-07-06T22:57:16.811Z,99428.66
2023-07-06T23:00:12.487Z,99429.36
2023-07-06T23:03:01.766Z,99430.89
2023-07-06T23:05:59.427Z,99432.17
2023-07-06T23:08:47.939Z,99430.33
2023-07-06T23:11:36.550Z,99433.48
2023-07-06T23:14:25.168Z,99431.67
2023-07-06T23:17:13.988Z,99430.83
2023-07-06T23:20:05.487Z,99439.48
2023-07-06T23:22:54.277Z,99442.89
2023-07-06T23:25:44.997Z,99444.23
2023-07-06T23:28:34.858Z,99440.58
2023-07-06T23:31:32.572Z,99443.73
2023-07-06T23:34:21.171Z,99442.16
2023-07-06T23:37:09.686Z,99443.67
2023-07-06T23:39:58.226Z,99445.78
2023-07-06T23:42:46.786Z,99450.00
2023-07-06T23:45:35.271Z,99448.75
2023-07-06T23:48:23.799Z,99448.08
2023-07-06T23:51:12.287Z,99447.23
2023-07-06T23:54:00.848Z,99445.96
2023-07-06T23:56:49.445Z,99448.46
2023-07-06T23:59:37.943Z,99449.30
